Nellis AFB, Nevada
Current Conditions -  °F | °C
As of 12:58 PM on Friday 19 Dec 2014 (Local Time) from KLSV Reporting Station
Clear Clear  
Wind Chill: 54°   Ceiling: Unl
Heat Index: 54°   Visibility: 10mi
Dew Point: 41°   Wind: 9mph
Humidity: 60%   Direction: 50°NE
Pressure: 30.19"   Gusts: NA
Location:  36.24°N, 115.03°W
Report Text: KLSV 192058Z AUTO 05008KT 10SM CLR 12/05 A3019 RMK AO2 SLP223 T01240049 57026 $
Loading
Personal Weather Stations






























Interactive Weather Map New forecast layout! Learn more

10-Day Weather Forecast

Advertisements
Track Severe Weather on mobile